createdAt,value
2023-06-13T00:00:20.755Z,50.80
2023-06-13T00:02:49.731Z,50.63
2023-06-13T00:05:22.210Z,50.27
2023-06-13T00:07:52.500Z,50.20
2023-06-13T00:10:21.416Z,49.80
2023-06-13T00:12:53.130Z,49.52
2023-06-13T00:15:22.088Z,49.43
2023-06-13T00:17:51.007Z,49.46
2023-06-13T00:20:20.143Z,49.33
2023-06-13T00:22:50.128Z,49.15
2023-06-13T00:25:19.095Z,49.14
2023-06-13T00:27:50.570Z,49.11
2023-06-13T00:30:19.488Z,48.98
2023-06-13T00:32:49.509Z,48.82
2023-06-13T00:35:18.855Z,48.47
2023-06-13T00:37:48.371Z,48.10
2023-06-13T00:40:17.663Z,47.88
2023-06-13T00:42:46.789Z,47.53
2023-06-13T00:45:21.778Z,47.69
2023-06-13T00:47:53.089Z,47.46
2023-06-13T00:50:23.114Z,47.48
2023-06-13T00:52:52.668Z,47.31
2023-06-13T00:55:23.064Z,47.43
2023-06-13T00:57:54.536Z,47.58
2023-06-13T01:00:27.828Z,47.75
2023-06-13T01:02:58.745Z,48.26
2023-06-13T01:05:29.454Z,47.86
2023-06-13T01:08:00.018Z,48.28
2023-06-13T01:10:29.561Z,48.41
2023-06-13T01:13:16.109Z,48.64
2023-06-13T01:15:49.255Z,49.00
2023-06-13T01:18:26.193Z,49.08
2023-06-13T01:20:57.542Z,49.23
2023-06-13T01:23:38.043Z,49.60
2023-06-13T01:26:15.043Z,49.86
2023-06-13T01:28:45.785Z,50.13
2023-06-13T01:31:16.263Z,50.16
2023-06-13T01:33:47.756Z,50.48
2023-06-13T01:36:16.821Z,50.63
2023-06-13T01:38:45.839Z,50.55
2023-06-13T01:41:15.487Z,50.89
2023-06-13T01:43:44.470Z,50.87
2023-06-13T01:46:21.411Z,51.20
2023-06-13T01:48:57.234Z,51.51
2023-06-13T01:51:31.331Z,51.52
2023-06-13T01:54:04.441Z,51.53
2023-06-13T01:56:34.272Z,51.68
2023-06-13T01:59:05.968Z,52.04
2023-06-13T02:01:37.289Z,52.02
2023-06-13T02:04:06.718Z,52.24
2023-06-13T02:06:56.342Z,52.08
2023-06-13T02:09:25.284Z,51.65
2023-06-13T02:11:54.214Z,51.33
2023-06-13T02:14:24.239Z,51.05
2023-06-13T02:16:53.553Z,50.66
2023-06-13T02:19:22.904Z,50.43
2023-06-13T02:21:52.735Z,49.71
2023-06-13T02:24:21.738Z,48.97
2023-06-13T02:26:52.019Z,48.69
2023-06-13T02:29:21.932Z,48.25
2023-06-13T02:31:51.181Z,47.78
2023-06-13T02:34:20.728Z,47.45
2023-06-13T02:36:49.632Z,47.10
2023-06-13T02:39:19.324Z,47.06
2023-06-13T02:41:48.481Z,46.91
2023-06-13T02:44:17.535Z,46.68
2023-06-13T02:46:46.622Z,46.66
2023-06-13T02:49:16.193Z,46.81
2023-06-13T02:51:45.200Z,46.81
2023-06-13T02:54:14.221Z,46.73
2023-06-13T02:56:43.186Z,46.82
2023-06-13T02:59:12.261Z,46.86
2023-06-13T03:01:41.434Z,46.89
2023-06-13T03:04:12.534Z,46.98
2023-06-13T03:06:42.321Z,47.05
2023-06-13T03:09:12.225Z,47.32
2023-06-13T03:11:41.609Z,47.52
2023-06-13T03:14:10.715Z,47.49
2023-06-13T03:16:40.413Z,47.58
2023-06-13T03:19:09.492Z,47.71
2023-06-13T03:21:38.497Z,47.82
2023-06-13T03:24:08.634Z,47.88
2023-06-13T03:26:39.543Z,48.01
2023-06-13T03:29:12.654Z,48.02
2023-06-13T03:31:42.298Z,48.33
2023-06-13T03:34:11.568Z,48.28
2023-06-13T03:36:40.926Z,48.31
2023-06-13T03:39:10.635Z,48.48
2023-06-13T03:41:39.697Z,48.47
2023-06-13T03:44:08.985Z,48.51
2023-06-13T03:46:38.148Z,48.51
2023-06-13T03:49:07.349Z,48.70
2023-06-13T03:51:36.970Z,48.75
2023-06-13T03:54:06.060Z,48.76
2023-06-13T03:56:35.091Z,48.85
2023-06-13T03:59:04.248Z,48.91
2023-06-13T04:01:33.284Z,49.09
2023-06-13T04:04:02.553Z,48.84
2023-06-13T04:06:31.757Z,48.98
2023-06-13T04:09:00.840Z,49.24
2023-06-13T04:11:33.463Z,49.41
2023-06-13T04:14:03.135Z,49.45
2023-06-13T04:16:32.025Z,49.54
2023-06-13T04:19:04.296Z,49.49
2023-06-13T04:21:33.226Z,49.31
2023-06-13T04:24:02.307Z,49.05
2023-06-13T04:26:32.192Z,49.02
2023-06-13T04:29:02.844Z,49.31
2023-06-13T04:31:48.449Z,49.31
2023-06-13T04:34:19.388Z,49.42
2023-06-13T04:36:48.731Z,49.50
2023-06-13T04:39:18.468Z,49.24
2023-06-13T04:41:50.027Z,49.26
2023-06-13T04:44:19.129Z,49.13
2023-06-13T04:46:51.370Z,49.22
2023-06-13T04:49:20.378Z,49.08
2023-06-13T04:51:50.540Z,48.77
2023-06-13T04:54:20.452Z,48.76
2023-06-13T04:56:50.358Z,48.59
2023-06-13T04:59:21.281Z,48.74
2023-06-13T05:01:50.708Z,48.87
2023-06-13T05:04:20.485Z,48.90
2023-06-13T05:06:49.333Z,48.78
2023-06-13T05:09:18.913Z,48.85
2023-06-13T05:11:48.077Z,48.78
2023-06-13T05:14:17.238Z,48.96
2023-06-13T05:16:48.632Z,49.20
2023-06-13T05:19:18.734Z,49.34
2023-06-13T05:21:48.521Z,49.71
2023-06-13T05:24:18.308Z,49.31
2023-06-13T05:26:47.598Z,49.09
2023-06-13T05:29:16.598Z,49.08
2023-06-13T05:31:47.194Z,48.96
2023-06-13T05:34:32.671Z,49.57
2023-06-13T05:37:03.317Z,48.33
2023-06-13T05:39:32.283Z,48.22
2023-06-13T05:42:01.355Z,48.21
2023-06-13T05:44:30.706Z,47.84
2023-06-13T05:46:59.615Z,47.53
2023-06-13T05:49:28.554Z,47.46
2023-06-13T05:51:58.300Z,47.15
2023-06-13T05:54:27.200Z,46.86
2023-06-13T05:56:56.310Z,46.64
2023-06-13T05:59:25.342Z,46.28
2023-06-13T06:01:54.675Z,46.45
2023-06-13T06:04:24.249Z,46.07
2023-06-13T06:06:54.078Z,45.91
2023-06-13T06:09:24.707Z,45.79
2023-06-13T06:11:54.845Z,45.53
2023-06-13T06:14:24.035Z,45.31
2023-06-13T06:16:53.059Z,44.42
2023-06-13T06:19:22.218Z,44.02
2023-06-13T06:21:51.285Z,44.04
2023-06-13T06:24:20.155Z,43.61
2023-06-13T06:26:49.344Z,43.58
2023-06-13T06:29:18.265Z,43.46
2023-06-13T06:31:47.148Z,42.96
2023-06-13T06:34:16.203Z,43.24
2023-06-13T06:36:45.284Z,42.57
2023-06-13T06:39:14.589Z,42.27
2023-06-13T06:41:43.488Z,41.51
2023-06-13T06:44:12.362Z,41.20
2023-06-13T06:46:41.459Z,41.05
2023-06-13T06:49:10.590Z,40.55
2023-06-13T06:51:39.695Z,40.29
2023-06-13T06:54:08.661Z,39.80
2023-06-13T06:56:37.926Z,39.21
2023-06-13T06:59:06.873Z,39.19
2023-06-13T07:01:36.561Z,39.10
2023-06-13T07:04:05.969Z,38.85
2023-06-13T07:06:35.099Z,38.22
2023-06-13T07:09:04.156Z,38.16
2023-06-13T07:11:33.060Z,38.31
2023-06-13T07:14:01.923Z,37.91
2023-06-13T07:16:31.000Z,37.16
2023-06-13T07:19:00.039Z,36.92
2023-06-13T07:21:30.226Z,36.96
2023-06-13T07:24:07.743Z,37.41
2023-06-13T07:26:37.673Z,36.60
2023-06-13T07:29:06.630Z,36.51
2023-06-13T07:31:35.656Z,37.06
2023-06-13T07:34:06.500Z,36.44
2023-06-13T07:36:38.937Z,35.98
2023-06-13T07:39:14.385Z,35.72
2023-06-13T07:41:45.920Z,36.02
2023-06-13T07:44:14.980Z,36.71
2023-06-13T07:46:44.305Z,35.52
2023-06-13T07:49:13.250Z,35.01
2023-06-13T07:51:42.364Z,35.22
2023-06-13T07:54:11.286Z,35.57
2023-06-13T07:56:40.398Z,35.32
2023-06-13T07:59:09.316Z,34.88
2023-06-13T08:01:38.334Z,34.43
2023-06-13T08:04:07.504Z,34.38
2023-06-13T08:06:36.632Z,34.25
2023-06-13T08:09:10.203Z,34.00
2023-06-13T08:11:39.695Z,34.01
2023-06-13T08:14:09.796Z,34.04
2023-06-13T08:16:39.332Z,34.08
2023-06-13T08:19:08.339Z,34.07
2023-06-13T08:21:37.281Z,34.74
2023-06-13T08:24:06.846Z,33.81
2023-06-13T08:26:35.792Z,34.04
2023-06-13T08:29:04.800Z,33.66
2023-06-13T08:34:11.201Z,34.05
2023-06-13T08:36:42.098Z,33.39
2023-06-13T08:39:11.126Z,32.89
2023-06-13T08:41:40.667Z,33.24
2023-06-13T08:44:09.693Z,32.35
2023-06-13T08:46:39.010Z,31.97
2023-06-13T08:49:08.044Z,31.41
2023-06-13T08:51:38.141Z,31.18
2023-06-13T08:54:09.073Z,31.46
2023-06-13T08:56:44.899Z,31.21
2023-06-13T08:59:16.934Z,31.26
2023-06-13T09:01:46.415Z,32.02
2023-06-13T09:04:18.332Z,31.67
2023-06-13T09:06:47.303Z,31.62
2023-06-13T09:09:18.565Z,31.58
2023-06-13T09:11:51.809Z,31.17
2023-06-13T09:14:21.520Z,31.65
2023-06-13T09:16:52.521Z,31.97
2023-06-13T09:19:21.742Z,32.44
2023-06-13T09:21:51.503Z,31.59
2023-06-13T09:24:21.303Z,30.50
2023-06-13T09:26:50.682Z,30.60
2023-06-13T09:29:27.218Z,30.42
2023-06-13T09:32:12.387Z,30.34
2023-06-13T09:34:43.035Z,30.15
2023-06-13T09:37:13.151Z,30.40
2023-06-13T09:39:50.952Z,30.41
2023-06-13T09:42:25.179Z,30.73
2023-06-13T09:44:58.887Z,30.20
2023-06-13T09:47:28.953Z,29.88
2023-06-13T09:49:59.136Z,29.22
2023-06-13T09:52:29.867Z,28.60
2023-06-13T09:54:59.093Z,29.22
2023-06-13T09:57:41.602Z,29.17
2023-06-13T10:00:18.215Z,28.91
2023-06-13T10:02:48.553Z,29.11
2023-06-13T10:05:17.616Z,29.10
2023-06-13T10:07:46.938Z,28.01
2023-06-13T10:10:16.901Z,28.45
2023-06-13T10:12:50.118Z,28.33
2023-06-13T10:15:22.011Z,27.53
2023-06-13T10:17:52.360Z,27.26
2023-06-13T10:20:21.858Z,26.88
2023-06-13T10:22:50.939Z,27.19
2023-06-13T10:25:20.874Z,26.49
2023-06-13T10:27:52.672Z,25.91
2023-06-13T10:30:34.818Z,25.88
2023-06-13T10:33:30.391Z,25.53
2023-06-13T10:36:12.751Z,24.37
2023-06-13T10:39:01.085Z,24.43
2023-06-13T10:41:40.415Z,23.82
2023-06-13T10:44:13.308Z,23.89
2023-06-13T10:46:42.660Z,23.40
2023-06-13T10:49:17.081Z,23.37
2023-06-13T10:51:46.669Z,23.50
2023-06-13T10:54:16.168Z,23.47
2023-06-13T10:56:46.172Z,23.43
2023-06-13T10:59:16.629Z,23.16
2023-06-13T11:01:46.156Z,23.05
2023-06-13T11:04:16.197Z,23.69
2023-06-13T11:06:45.906Z,23.30
2023-06-13T11:09:19.413Z,23.68
2023-06-13T11:11:49.924Z,22.29
2023-06-13T11:14:21.237Z,22.42
2023-06-13T11:16:50.123Z,22.46
2023-06-13T11:19:20.503Z,22.06
2023-06-13T11:21:51.823Z,21.31
2023-06-13T11:24:21.189Z,21.72
2023-06-13T11:26:50.166Z,21.34
2023-06-13T11:29:19.416Z,21.51
2023-06-13T11:31:52.659Z,20.45
2023-06-13T11:34:25.683Z,20.98
2023-06-13T11:36:57.345Z,20.70
2023-06-13T11:39:28.574Z,20.43
2023-06-13T11:41:58.342Z,21.12
2023-06-13T11:44:27.339Z,20.91
2023-06-13T11:46:56.804Z,21.33
2023-06-13T11:49:27.624Z,20.90
2023-06-13T11:51:56.949Z,20.88
2023-06-13T11:54:31.605Z,21.32
2023-06-13T11:57:00.595Z,22.27
2023-06-13T11:59:29.592Z,21.67
2023-06-13T12:01:58.727Z,20.46
2023-06-13T12:04:28.394Z,20.37
2023-06-13T12:06:58.989Z,20.78
2023-06-13T12:09:29.560Z,20.41
2023-06-13T12:11:58.582Z,20.07
2023-06-13T12:14:30.081Z,19.47
2023-06-13T12:17:00.597Z,20.07
2023-06-13T12:19:29.767Z,20.37
2023-06-13T12:22:01.175Z,19.01
2023-06-13T12:24:30.192Z,19.19
2023-06-13T12:26:59.239Z,19.54
2023-06-13T12:29:29.046Z,19.05
2023-06-13T12:32:04.279Z,18.87
2023-06-13T12:34:36.052Z,18.20
2023-06-13T12:37:06.109Z,17.96
2023-06-13T12:39:36.307Z,17.89
2023-06-13T12:42:07.436Z,17.96
2023-06-13T12:44:37.376Z,17.57
2023-06-13T12:47:07.541Z,16.80
2023-06-13T12:49:41.132Z,17.20
2023-06-13T12:52:17.730Z,17.48
2023-06-13T12:54:46.585Z,17.41
2023-06-13T12:57:18.892Z,15.48
2023-06-13T12:59:53.675Z,16.16
2023-06-13T13:02:24.380Z,16.87
2023-06-13T13:05:01.059Z,17.25
2023-06-13T13:07:31.173Z,17.22
2023-06-13T13:10:00.894Z,17.07
2023-06-13T13:12:30.354Z,18.00
2023-06-13T13:15:01.688Z,17.84
2023-06-13T13:17:31.105Z,17.00
2023-06-13T13:19:59.965Z,17.28
2023-06-13T13:22:28.948Z,16.85
2023-06-13T13:24:57.779Z,16.57
2023-06-13T13:27:27.107Z,16.24
2023-06-13T13:29:58.269Z,15.38
2023-06-13T13:32:29.081Z,16.07
2023-06-13T13:34:58.097Z,16.37
2023-06-13T13:37:26.990Z,17.13
2023-06-13T13:39:55.927Z,17.22
2023-06-13T13:42:26.453Z,16.64
2023-06-13T13:44:55.672Z,16.09
2023-06-13T13:47:24.741Z,16.72
2023-06-13T13:49:55.004Z,15.98
2023-06-13T13:52:24.367Z,15.75
2023-06-13T13:54:53.466Z,15.63
2023-06-13T13:57:22.429Z,15.38
2023-06-13T13:59:51.688Z,15.11
2023-06-13T14:02:20.655Z,15.64
2023-06-13T14:04:49.477Z,15.98
2023-06-13T14:07:18.310Z,16.06
2023-06-13T14:09:47.119Z,16.10
2023-06-13T14:12:16.210Z,16.02
2023-06-13T14:14:45.073Z,15.63
2023-06-13T14:17:14.425Z,16.24
2023-06-13T14:19:43.924Z,16.07
2023-06-13T14:22:12.865Z,15.91
2023-06-13T14:24:41.797Z,16.27
2023-06-13T14:27:11.335Z,15.64
2023-06-13T14:29:40.394Z,14.77
2023-06-13T14:32:10.243Z,15.19
2023-06-13T14:34:39.540Z,15.07
2023-06-13T14:37:08.512Z,15.18
2023-06-13T14:39:37.517Z,14.92
2023-06-13T14:42:06.870Z,15.17
2023-06-13T14:44:35.754Z,15.10
2023-06-13T14:47:05.804Z,14.21
2023-06-13T14:49:34.781Z,14.43
2023-06-13T14:52:04.435Z,14.43
2023-06-13T14:54:33.354Z,14.51
2023-06-13T14:57:02.969Z,14.99
2023-06-13T14:59:33.119Z,14.52
2023-06-13T15:02:02.079Z,14.37
2023-06-13T15:04:30.955Z,14.66
2023-06-13T15:06:59.916Z,14.75
2023-06-13T15:09:30.114Z,14.70
2023-06-13T15:12:00.406Z,14.98
2023-06-13T15:14:29.429Z,15.06
2023-06-13T15:16:58.365Z,14.90
2023-06-13T15:19:27.411Z,15.26
2023-06-13T15:21:56.440Z,15.00
2023-06-13T15:24:26.600Z,14.82
2023-06-13T15:26:55.705Z,14.63
2023-06-13T15:29:24.588Z,15.43
2023-06-13T15:31:54.677Z,15.05
2023-06-13T15:34:25.929Z,15.43
2023-06-13T15:36:55.117Z,15.35
2023-06-13T15:39:25.418Z,14.95
2023-06-13T15:41:54.936Z,15.15
2023-06-13T15:44:24.037Z,15.79
2023-06-13T15:46:53.518Z,16.00
2023-06-13T15:49:23.971Z,15.80
2023-06-13T15:51:52.934Z,15.55
2023-06-13T15:54:21.880Z,15.71
2023-06-13T15:56:50.874Z,15.37
2023-06-13T15:59:19.946Z,15.50
2023-06-13T16:01:48.815Z,15.71
2023-06-13T16:04:18.141Z,16.00
2023-06-13T16:06:47.309Z,16.06
2023-06-13T16:09:16.486Z,16.29
2023-06-13T16:11:47.352Z,16.45
2023-06-13T16:14:16.476Z,16.72
2023-06-13T16:16:46.769Z,16.63
2023-06-13T16:19:16.937Z,16.04
2023-06-13T16:21:46.197Z,16.60
2023-06-13T16:24:15.198Z,16.64
2023-06-13T16:26:44.134Z,17.16
2023-06-13T16:29:13.044Z,16.79
2023-06-13T16:31:43.759Z,17.01
2023-06-13T16:34:13.595Z,17.35
2023-06-13T16:36:43.281Z,17.71
2023-06-13T16:39:12.366Z,18.18
2023-06-13T16:41:41.235Z,18.74
2023-06-13T16:44:10.176Z,18.42
2023-06-13T16:46:39.571Z,18.67
2023-06-13T16:49:08.482Z,18.85
2023-06-13T16:51:37.556Z,19.27
2023-06-13T16:54:06.525Z,19.80
2023-06-13T16:56:35.455Z,20.02
2023-06-13T16:59:04.297Z,19.73
2023-06-13T17:01:33.588Z,20.08
2023-06-13T17:04:02.734Z,19.70
2023-06-13T17:06:31.695Z,19.55
2023-06-13T17:09:01.579Z,20.29
2023-06-13T17:11:30.526Z,20.32
2023-06-13T17:14:03.047Z,20.79
2023-06-13T17:16:34.262Z,20.99
2023-06-13T17:19:03.940Z,20.95
2023-06-13T17:21:33.891Z,21.34
2023-06-13T17:24:04.787Z,21.28
2023-06-13T17:26:35.276Z,21.51
2023-06-13T17:29:04.120Z,22.01
2023-06-13T17:31:33.248Z,21.78
2023-06-13T17:34:02.218Z,21.80
2023-06-13T17:36:31.313Z,22.03
2023-06-13T17:39:00.262Z,21.81
2023-06-13T17:41:29.263Z,22.11
2023-06-13T17:43:58.468Z,22.38
2023-06-13T17:46:27.997Z,22.54
2023-06-13T17:48:56.984Z,22.73
2023-06-13T17:51:26.371Z,22.94
2023-06-13T17:53:55.681Z,23.20
2023-06-13T17:56:24.703Z,23.58
2023-06-13T17:58:53.756Z,23.46
2023-06-13T18:01:22.825Z,23.63
2023-06-13T18:03:52.060Z,23.55
2023-06-13T18:06:22.676Z,24.04
2023-06-13T18:08:51.744Z,23.94
2023-06-13T18:11:20.653Z,23.43
2023-06-13T18:13:49.535Z,23.67
2023-06-13T18:16:18.483Z,23.45
2023-06-13T18:18:47.352Z,23.54
2023-06-13T18:21:16.354Z,23.95
2023-06-13T18:23:45.431Z,24.15
2023-06-13T18:26:14.390Z,24.13
2023-06-13T18:28:43.321Z,24.52
2023-06-13T18:31:12.365Z,24.69
2023-06-13T18:33:41.597Z,24.54
2023-06-13T18:36:10.523Z,24.23
2023-06-13T18:38:39.529Z,24.44
2023-06-13T18:41:08.554Z,24.26
2023-06-13T18:43:37.577Z,24.46
2023-06-13T18:46:06.589Z,24.27
2023-06-13T18:48:35.665Z,24.14
2023-06-13T18:51:04.999Z,25.39
2023-06-13T18:53:33.894Z,24.97
2023-06-13T18:56:02.846Z,25.54
2023-06-13T18:58:31.932Z,25.95
2023-06-13T19:01:01.039Z,26.29
2023-06-13T19:03:30.068Z,26.62
2023-06-13T19:05:59.314Z,26.97
2023-06-13T19:08:28.443Z,27.06
2023-06-13T19:10:57.546Z,27.92
2023-06-13T19:13:26.560Z,28.63
2023-06-13T19:15:55.837Z,29.49
2023-06-13T19:18:25.857Z,29.96
2023-06-13T19:20:54.846Z,30.60
2023-06-13T19:23:23.729Z,30.95
2023-06-13T19:25:55.040Z,31.50
2023-06-13T19:28:24.204Z,31.86
2023-06-13T19:30:53.311Z,32.49
2023-06-13T19:33:22.393Z,32.80
2023-06-13T19:35:51.380Z,33.09
2023-06-13T19:38:20.613Z,33.47
2023-06-13T19:40:49.863Z,33.67
2023-06-13T19:43:18.850Z,34.19
2023-06-13T19:45:48.827Z,34.53
2023-06-13T19:48:18.125Z,35.05
2023-06-13T19:50:49.664Z,35.33
2023-06-13T19:53:19.669Z,35.73
2023-06-13T19:55:49.403Z,36.07
2023-06-13T19:58:20.394Z,36.46
2023-06-13T20:00:49.523Z,36.90
2023-06-13T20:03:19.423Z,37.44
2023-06-13T20:05:48.591Z,37.58
2023-06-13T20:08:17.679Z,37.90
2023-06-13T20:10:47.752Z,38.29
2023-06-13T20:13:17.353Z,38.61
2023-06-13T20:15:46.629Z,38.91
2023-06-13T20:18:16.216Z,39.39
2023-06-13T20:20:46.137Z,39.59
2023-06-13T20:23:15.266Z,39.83
2023-06-13T20:25:44.412Z,40.19
2023-06-13T20:28:15.642Z,40.63
2023-06-13T20:30:44.690Z,40.79
2023-06-13T20:33:13.886Z,41.04
2023-06-13T20:35:42.924Z,41.49
2023-06-13T20:38:12.048Z,41.67
2023-06-13T20:40:41.287Z,41.62
2023-06-13T20:43:12.073Z,41.85
2023-06-13T20:45:41.448Z,42.25
2023-06-13T20:48:10.866Z,42.38
2023-06-13T20:50:40.552Z,42.69
2023-06-13T20:53:09.619Z,42.80
2023-06-13T20:55:38.520Z,43.00
2023-06-13T20:58:08.110Z,43.20
2023-06-13T21:00:37.884Z,43.34
2023-06-13T21:03:07.332Z,43.63
2023-06-13T21:05:36.653Z,43.62
2023-06-13T21:08:06.998Z,43.92
2023-06-13T21:10:35.926Z,44.27
2023-06-13T21:13:05.015Z,44.49
2023-06-13T21:15:34.598Z,44.52
2023-06-13T21:18:04.554Z,44.83
2023-06-13T21:20:33.687Z,44.92
2023-06-13T21:23:02.708Z,45.22
2023-06-13T21:25:31.786Z,45.51
2023-06-13T21:28:00.873Z,45.62
2023-06-13T21:30:29.813Z,45.77
2023-06-13T21:32:58.898Z,46.15
2023-06-13T21:35:28.045Z,46.21
2023-06-13T21:37:57.869Z,46.12
2023-06-13T21:40:26.854Z,46.17
2023-06-13T21:42:56.915Z,46.25
2023-06-13T21:45:32.281Z,46.51
2023-06-13T21:48:02.785Z,46.54
2023-06-13T21:50:32.760Z,46.32
2023-06-13T21:53:01.729Z,46.12
2023-06-13T21:55:30.774Z,46.10
2023-06-13T21:57:59.657Z,46.01
2023-06-13T22:00:28.674Z,45.84
2023-06-13T22:02:57.672Z,45.85
2023-06-13T22:05:27.590Z,45.71
2023-06-13T22:07:58.493Z,45.54
2023-06-13T22:10:28.643Z,45.26
2023-06-13T22:12:57.932Z,45.13
2023-06-13T22:15:26.791Z,44.78
2023-06-13T22:17:58.128Z,44.80
2023-06-13T22:20:27.066Z,44.71
2023-06-13T22:22:59.010Z,44.65
2023-06-13T22:25:28.532Z,44.54
2023-06-13T22:27:57.953Z,44.26
2023-06-13T22:30:26.956Z,44.18
2023-06-13T22:32:56.395Z,44.00
2023-06-13T22:35:25.805Z,43.85
2023-06-13T22:37:54.797Z,43.75
2023-06-13T22:40:23.742Z,43.86
2023-06-13T22:42:52.732Z,43.67
2023-06-13T22:45:23.178Z,43.70
2023-06-13T22:47:53.572Z,43.60
2023-06-13T22:50:22.831Z,43.45
2023-06-13T22:52:53.968Z,43.27
2023-06-13T22:55:23.878Z,43.12
2023-06-13T22:57:52.844Z,43.19
2023-06-13T23:00:21.954Z,43.10
2023-06-13T23:02:52.582Z,42.98
2023-06-13T23:05:21.659Z,43.11
2023-06-13T23:07:50.662Z,42.93
2023-06-13T23:10:19.655Z,43.00
2023-06-13T23:12:48.575Z,42.84
2023-06-13T23:15:17.577Z,43.01
2023-06-13T23:17:46.630Z,43.02
2023-06-13T23:20:17.060Z,43.16
2023-06-13T23:22:47.617Z,42.96
2023-06-13T23:25:22.321Z,43.21
2023-06-13T23:27:51.402Z,43.27
2023-06-13T23:30:21.037Z,43.44
2023-06-13T23:32:52.448Z,43.23
2023-06-13T23:35:23.745Z,43.28
2023-06-13T23:37:52.773Z,43.30
2023-06-13T23:40:21.792Z,43.33
2023-06-13T23:42:51.097Z,43.24
2023-06-13T23:45:20.119Z,43.42
2023-06-13T23:47:49.100Z,43.57
2023-06-13T23:50:18.926Z,43.50
2023-06-13T23:52:47.782Z,43.47
2023-06-13T23:55:17.419Z,43.60
2023-06-13T23:57:46.346Z,43.72
